Time;durP1;ratioP1;P1;durP2;ratioP2;P2;SDS_P1;SDS_P2;PMS_P1;PMS_P2;Temp;Humidity;BMP_temperature;BMP_pressure;BME280_temperature;BME280_humidity;BME280_pressure;Samples;Min_cycle;Max_cycle;Signal;HPM_P1;HPM_P2
2022/08/19 00:03:57;;;;;;;18.38;14.35;;;;;;;18.23;100.00;100325.94;8325213;28;20037;-51
2022/08/19 00:07:58;;;;;;;22.50;16.77;;;;;;;18.63;100.00;100321.75;8324578;28;20047;-52
2022/08/19 00:11:59;;;;;;;20.65;16.67;;;;;;;18.92;100.00;100327.03;8324060;28;20068;-51
2022/08/19 00:16:00;;;;;;;24.38;17.30;;;;;;;18.88;100.00;100317.53;8324121;28;20041;-49
2022/08/19 00:20:00;;;;;;;19.35;17.35;;;;;;;18.84;100.00;100318.97;8323216;28;20041;-51
2022/08/19 00:24:01;;;;;;;19.70;16.25;;;;;;;18.93;100.00;100318.63;8323770;28;20064;-48
2022/08/19 00:28:03;;;;;;;21.83;17.77;;;;;;;18.83;100.00;100328.22;8325791;28;20860;-48
2022/08/19 00:32:04;;;;;;;21.38;17.27;;;;;;;18.82;100.00;100327.38;8355832;28;20029;-48
2022/08/19 00:36:07;;;;;;;22.92;17.58;;;;;;;18.94;100.00;100324.97;8355741;28;20079;-50
2022/08/19 00:40:09;;;;;;;18.97;16.60;;;;;;;18.67;100.00;100328.53;8350639;28;20486;-48
2022/08/19 00:44:14;;;;;;;21.98;17.77;;;;;;;18.56;100.00;100310.72;8355853;28;20037;-48
2022/08/19 00:48:16;;;;;;;21.77;18.35;;;;;;;18.39;100.00;100314.75;8332805;28;20048;-49
2022/08/19 00:52:22;;;;;;;21.70;18.50;;;;;;;18.37;100.00;100316.88;8330285;28;20110;-49
2022/08/19 00:56:23;;;;;;;28.48;19.63;;;;;;;18.52;100.00;100316.78;8341619;28;20495;-53
2022/08/19 01:00:26;;;;;;;23.42;18.88;;;;;;;18.62;100.00;100318.16;8312981;28;20312;-52
2022/08/19 01:04:27;;;;;;;24.52;19.67;;;;;;;18.62;100.00;100315.41;8322696;28;20363;-52
2022/08/19 01:08:28;;;;;;;24.70;19.48;;;;;;;18.45;100.00;100313.97;8354120;28;20040;-50
2022/08/19 01:12:28;;;;;;;27.17;20.10;;;;;;;18.37;100.00;100316.88;8355065;28;20375;-50
2022/08/19 01:16:31;;;;;;;24.17;19.95;;;;;;;18.10;100.00;100314.84;8355080;28;20041;-50
2022/08/19 01:20:32;;;;;;;24.60;20.00;;;;;;;17.99;100.00;100317.25;8354871;28;20490;-52
2022/08/19 01:24:33;;;;;;;30.60;21.63;;;;;;;18.02;100.00;100319.59;8355181;28;20040;-50
2022/08/19 01:28:33;;;;;;;26.00;19.63;;;;;;;17.63;100.00;100306.31;8345271;28;20036;-53
2022/08/19 01:32:34;;;;;;;27.33;21.60;;;;;;;17.88;100.00;100304.94;8354094;28;20040;-49
2022/08/19 01:36:41;;;;;;;26.17;21.67;;;;;;;17.71;100.00;100303.44;8354014;28;20506;-51
2022/08/19 01:40:42;;;;;;;31.13;21.48;;;;;;;17.99;100.00;100307.16;8312335;28;20041;-49
2022/08/19 01:44:42;;;;;;;37.43;23.30;;;;;;;17.92;100.00;100305.38;8353234;28;20052;-50
2022/08/19 01:48:43;;;;;;;30.58;23.35;;;;;;;18.00;100.00;100297.91;8340255;28;20334;-49
2022/08/19 01:52:45;;;;;;;32.85;24.75;;;;;;;17.86;100.00;100287.84;8321508;28;20049;-49
2022/08/19 01:56:45;;;;;;;37.80;27.05;;;;;;;17.87;100.00;100281.34;8322198;28;20268;-49
2022/08/19 02:00:46;;;;;;;39.67;27.67;;;;;;;17.98;100.00;100269.91;8312527;28;20064;-50
2022/08/19 02:04:46;;;;;;;35.75;26.77;;;;;;;18.08;100.00;100283.28;8350819;28;20308;-49
2022/08/19 02:08:47;;;;;;;34.13;27.70;;;;;;;17.95;100.00;100294.91;8321183;28;20053;-49
2022/08/19 02:12:49;;;;;;;37.22;27.58;;;;;;;17.66;100.00;100284.06;8321040;28;20287;-50
2022/08/19 02:16:49;;;;;;;38.17;27.55;;;;;;;17.48;100.00;100286.34;8320233;28;20037;-50
2022/08/19 02:20:50;;;;;;;35.60;26.17;;;;;;;17.43;100.00;100288.78;8312641;28;20505;-54
2022/08/19 02:24:52;;;;;;;36.00;26.85;;;;;;;17.23;100.00;100283.00;8320929;28;20041;-52
2022/08/19 02:28:54;;;;;;;35.10;27.50;;;;;;;17.28;100.00;100286.03;8308335;28;20040;-53
2022/08/19 02:32:54;;;;;;;35.35;27.10;;;;;;;17.39;100.00;100292.91;8314896;28;20494;-50
2022/08/19 02:36:54;;;;;;;33.27;26.07;;;;;;;17.42;100.00;100298.00;8320712;28;20402;-51
2022/08/19 02:40:58;;;;;;;32.78;25.23;;;;;;;17.29;100.00;100297.78;8320132;28;20355;-49
2022/08/19 02:45:00;;;;;;;38.45;26.77;;;;;;;17.16;100.00;100300.34;8319564;28;20043;-50
2022/08/19 02:49:04;;;;;;;40.42;29.08;;;;;;;17.02;100.00;100312.13;8302424;28;20060;-52
2022/08/19 02:53:06;;;;;;;38.20;29.10;;;;;;;17.00;100.00;100308.72;8339851;28;20033;-54
2022/08/19 02:57:07;;;;;;;41.15;29.33;;;;;;;17.14;100.00;100316.94;8339705;28;20039;-50
2022/08/19 03:01:08;;;;;;;36.42;28.42;;;;;;;17.04;100.00;100323.69;8328661;28;20124;-49
2022/08/19 03:05:09;;;;;;;36.08;26.58;;;;;;;16.95;100.00;100305.69;8326086;28;20036;-48
2022/08/19 03:09:11;;;;;;;35.10;26.50;;;;;;;17.20;100.00;100310.72;8326666;28;20033;-49
2022/08/19 03:13:14;;;;;;;32.28;25.52;;;;;;;17.15;100.00;100306.84;8327059;28;20053;-48
2022/08/19 03:17:15;;;;;;;39.15;29.00;;;;;;;17.07;100.00;100309.66;8323256;28;20053;-49
2022/08/19 03:21:18;;;;;;;37.63;27.33;;;;;;;16.91;100.00;100305.25;8319339;28;20029;-48
2022/08/19 03:25:18;;;;;;;36.45;29.98;;;;;;;16.98;100.00;100295.25;8327236;28;20033;-49
2022/08/19 03:29:20;;;;;;;38.63;26.67;;;;;;;16.89;100.00;100300.97;8322349;28;20117;-49
2022/08/19 03:33:20;;;;;;;38.67;27.73;;;;;;;16.76;100.00;100306.22;8323955;28;20113;-50
2022/08/19 03:37:22;;;;;;;36.70;28.10;;;;;;;17.16;100.00;100314.88;8324226;28;20048;-52
2022/08/19 03:41:26;;;;;;;37.75;26.05;;;;;;;16.83;100.00;100323.56;8324305;28;20498;-50
2022/08/19 03:45:27;;;;;;;41.53;29.45;;;;;;;16.75;100.00;100332.72;8325187;28;20041;-49
2022/08/19 03:49:30;;;;;;;45.85;31.95;;;;;;;16.60;100.00;100333.69;8321870;28;20136;-49
2022/08/19 03:53:32;;;;;;;43.58;30.35;;;;;;;16.64;100.00;100324.09;8323301;28;20121;-52
2022/08/19 03:57:34;;;;;;;35.35;27.23;;;;;;;16.74;100.00;100331.00;8327166;28;20107;-49
2022/08/19 04:01:35;;;;;;;42.70;29.83;;;;;;;16.79;100.00;100338.63;8327392;28;20052;-52
2022/08/19 04:05:37;;;;;;;39.25;28.02;;;;;;;16.85;100.00;100333.28;8340537;28;20127;-51
2022/08/19 04:09:37;;;;;;;42.70;30.33;;;;;;;16.91;100.00;100332.53;8290815;28;20061;-49
2022/08/19 04:13:38;;;;;;;46.15;33.60;;;;;;;16.88;100.00;100342.97;8304788;28;20061;-51
2022/08/19 04:17:40;;;;;;;48.85;34.67;;;;;;;16.76;100.00;100347.19;8323338;28;20111;-49
2022/08/19 04:21:44;;;;;;;50.90;34.97;;;;;;;16.71;100.00;100346.91;8363232;28;20056;-48
2022/08/19 04:25:45;;;;;;;;;;;;;;;16.88;100.00;100353.91;8338538;28;20128;-49
2022/08/19 04:29:45;;;;;;;56.00;35.20;;;;;;;16.92;100.00;100350.63;8347544;28;19959;-51
2022/08/19 04:33:46;;;;;;;55.55;33.97;;;;;;;16.96;100.00;100348.38;8356003;28;20064;-51
2022/08/19 04:37:46;;;;;;;51.70;34.90;;;;;;;17.03;100.00;100341.13;8335152;28;20052;-52
2022/08/19 04:42:47;;;;;;;54.25;37.38;;;;;;;17.03;100.00;100357.53;8330939;28;20036;-49
2022/08/19 04:46:11;;;;;;;49.92;35.55;;;;;;;16.81;100.00;100358.41;8323473;28;20038;-52
2022/08/19 04:50:12;;;;;;;47.50;31.70;;;;;;;17.03;100.00;100358.38;8324572;28;20045;-49
2022/08/19 04:54:13;;;;;;;43.75;29.05;;;;;;;16.87;100.00;100363.97;8340179;28;20573;-53
2022/08/19 04:58:13;;;;;;;49.22;30.88;;;;;;;16.93;100.00;100373.31;8314782;28;20041;-51
2022/08/19 05:02:13;;;;;;;48.03;32.92;;;;;;;17.08;100.00;100376.94;8318671;28;20041;-49
2022/08/19 05:06:16;;;;;;;51.30;34.63;;;;;;;17.14;100.00;100376.19;8322224;28;20386;-50
2022/08/19 05:10:17;;;;;;;69.55;45.78;;;;;;;17.56;100.00;100387.38;8320952;28;20036;-49
2022/08/19 05:14:19;;;;;;;90.80;54.75;;;;;;;18.42;100.00;100391.03;8312832;28;20057;-48
2022/08/19 05:22:42;;;;;;;78.03;50.22;;;;;;;18.86;100.00;100408.13;8322422;28;20037;-48
2022/08/19 05:26:46;;;;;;;76.63;48.17;;;;;;;18.93;100.00;100405.44;8329971;28;20037;-50
2022/08/19 05:30:48;;;;;;;75.93;46.65;;;;;;;18.91;100.00;100408.38;8333311;28;20566;-49
2022/08/19 05:34:49;;;;;;;69.72;45.25;;;;;;;18.96;100.00;100405.91;8311715;28;20073;-51
2022/08/19 05:38:49;;;;;;;75.10;48.22;;;;;;;18.99;100.00;100415.63;8349496;28;20110;-49
2022/08/19 05:42:50;;;;;;;76.78;51.00;;;;;;;19.10;100.00;100413.22;8341931;28;20574;-51
2022/08/19 05:46:53;;;;;;;78.10;49.30;;;;;;;19.24;100.00;100409.50;8351431;28;20050;-49
2022/08/19 05:50:54;;;;;;;84.10;52.30;;;;;;;19.35;100.00;100406.28;8294427;28;20476;-49
2022/08/19 05:54:55;;;;;;;84.72;51.22;;;;;;;19.40;100.00;100398.28;8289554;28;20752;-49
2022/08/19 05:58:55;;;;;;;82.38;51.08;;;;;;;19.55;100.00;100400.06;8306581;28;20383;-49
2022/08/19 06:02:56;;;;;;;82.85;51.22;;;;;;;19.85;100.00;100407.00;8288996;28;20087;-51
2022/08/19 06:06:58;;;;;;;97.45;51.45;;;;;;;20.06;100.00;100409.66;8286495;28;20524;-52
2022/08/19 06:11:12;;;;;;;93.60;50.40;;;;;;;20.55;100.00;100422.09;8312635;28;20099;-52
2022/08/19 06:15:14;;;;;;;76.35;48.33;;;;;;;20.56;100.00;100411.97;8348341;28;20049;-49
2022/08/19 06:19:17;;;;;;;80.45;48.40;;;;;;;20.51;100.00;100409.84;8346640;28;20033;-48
2022/08/19 06:23:20;;;;;;;89.25;49.92;;;;;;;20.35;100.00;100410.22;8315131;28;20053;-52
2022/08/19 06:27:21;;;;;;;83.05;47.92;;;;;;;20.34;100.00;100414.00;8348620;28;20390;-51
2022/08/19 06:31:29;;;;;;;89.18;48.83;;;;;;;20.51;100.00;100409.00;8319766;28;20053;-49
2022/08/19 06:35:29;;;;;;;77.00;45.53;;;;;;;20.66;100.00;100412.41;8319074;28;20035;-49
2022/08/19 06:39:34;;;;;;;76.55;46.95;;;;;;;20.63;100.00;100408.19;8324317;28;20037;-51
2022/08/19 06:43:35;;;;;;;74.38;45.55;;;;;;;20.66;100.00;100410.53;8324552;28;20080;-52
2022/08/19 06:47:36;;;;;;;72.55;45.25;;;;;;;20.82;100.00;100406.50;8325020;28;20067;-49
2022/08/19 06:51:36;;;;;;;76.80;43.75;;;;;;;20.78;100.00;100422.59;8326619;28;20068;-52
2022/08/19 06:55:37;;;;;;;73.20;44.05;;;;;;;20.63;100.00;100412.81;8326503;28;20037;-52
2022/08/19 06:59:37;;;;;;;73.35;43.72;;;;;;;20.62;100.00;100427.63;8325680;28;20044;-49
2022/08/19 07:03:39;;;;;;;76.87;46.03;;;;;;;20.63;100.00;100432.91;8353115;28;20044;-49
2022/08/19 07:07:42;;;;;;;85.32;50.63;;;;;;;20.57;100.00;100424.66;8359462;28;20264;-49
2022/08/19 07:11:45;;;;;;;89.60;51.30;;;;;;;20.64;100.00;100431.00;8359113;28;20033;-49
2022/08/19 07:15:46;;;;;;;103.03;54.83;;;;;;;20.70;100.00;100442.00;8358777;28;20041;-49
2022/08/19 07:19:47;;;;;;;94.75;52.75;;;;;;;20.74;100.00;100447.94;8354058;28;20056;-49
2022/08/19 07:23:48;;;;;;;99.03;54.45;;;;;;;20.75;100.00;100446.88;8358992;28;20044;-52
2022/08/19 07:27:50;;;;;;;99.65;52.15;;;;;;;20.81;100.00;100451.56;8355022;28;20041;-50
2022/08/19 07:31:52;;;;;;;98.65;51.92;;;;;;;20.84;100.00;100452.00;8358252;28;20036;-51
2022/08/19 07:35:53;;;;;;;105.15;56.15;;;;;;;20.88;100.00;100457.91;8357321;28;20045;-49
2022/08/19 07:39:53;;;;;;;111.05;55.40;;;;;;;20.99;100.00;100460.94;8356667;28;20037;-49
2022/08/19 07:43:54;;;;;;;101.30;52.87;;;;;;;21.09;100.00;100457.75;8358237;28;20033;-52
2022/08/19 07:47:55;;;;;;;95.80;53.30;;;;;;;21.19;100.00;100469.19;8356238;28;20283;-50
2022/08/19 07:52:01;;;;;;;95.22;52.03;;;;;;;21.50;100.00;100477.66;8358184;28;20120;-52
2022/08/19 07:56:03;;;;;;;89.13;48.55;;;;;;;21.85;98.36;100476.41;8358255;28;20037;-49
2022/08/19 08:00:05;;;;;;;90.05;49.92;;;;;;;21.87;97.97;100474.28;8345327;28;20041;-48
2022/08/19 08:09:28;;;;;;;86.88;47.10;;;;;;;22.14;95.55;100478.66;8355859;28;20558;-49
2022/08/19 08:12:48;;;;;;;83.30;47.17;;;;;;;22.26;94.03;100482.44;8354290;28;20033;-50
2022/08/19 08:16:50;;;;;;;74.93;43.53;;;;;;;22.27;91.86;100473.13;8356249;28;20041;-48
2022/08/19 08:20:51;;;;;;;75.57;42.85;;;;;;;22.29;91.44;100473.72;8325701;28;20030;-50
2022/08/19 08:24:51;;;;;;;71.03;41.25;;;;;;;22.35;90.38;100467.34;8324793;28;20125;-51
2022/08/19 08:28:53;;;;;;;65.15;39.22;;;;;;;22.68;88.63;100478.25;8322543;28;20034;-50
2022/08/19 08:32:54;;;;;;;57.42;36.60;;;;;;;22.96;86.85;100487.88;8323956;28;20048;-48
2022/08/19 08:36:54;;;;;;;62.63;37.83;;;;;;;23.04;86.08;100482.09;8323910;28;20125;-50
2022/08/19 08:41:06;;;;;;;55.75;34.53;;;;;;;23.46;82.65;100482.44;8323456;28;20037;-49
2022/08/19 08:45:14;;;;;;;55.53;35.25;;;;;;;23.15;82.76;100486.88;8323477;28;20478;-49
2022/08/19 08:49:43;;;;;;;51.47;33.58;;;;;;;24.05;79.42;100483.63;8352904;28;20116;-50
2022/08/19 08:53:45;;;;;;;44.80;27.25;;;;;;;23.92;77.78;100480.97;8346614;28;20041;-48
2022/08/19 08:57:55;;;;;;;42.05;27.45;;;;;;;24.43;76.58;100475.13;8345270;28;20045;-47
2022/08/19 09:01:55;;;;;;;32.88;24.30;;;;;;;24.42;76.00;100479.78;8329292;28;20049;-50
2022/08/19 09:06:11;;;;;;;37.47;23.63;;;;;;;24.77;73.79;100478.06;8323472;28;20041;-49
2022/08/19 09:10:28;;;;;;;30.27;20.35;;;;;;;25.05;72.94;100477.47;8346437;28;20269;-47
2022/08/19 09:14:43;;;;;;;25.42;18.40;;;;;;;25.64;70.54;100477.41;8354933;28;20075;-48
2022/08/19 09:18:48;;;;;;;23.60;17.30;;;;;;;26.28;67.46;100477.28;8350718;28;20041;-47
2022/08/19 09:22:49;;;;;;;25.48;17.55;;;;;;;26.53;66.65;100474.25;8355127;28;20048;-49
2022/08/19 09:26:49;;;;;;;26.67;16.83;;;;;;;26.40;66.54;100474.50;8355265;28;20108;-49
2022/08/19 09:30:51;;;;;;;26.13;15.63;;;;;;;26.58;66.59;100472.41;8347423;28;20494;-50
2022/08/19 09:34:54;;;;;;;19.60;14.77;;;;;;;26.77;65.23;100475.84;8353003;28;20041;-48
2022/08/19 09:38:55;;;;;;;29.63;19.00;;;;;;;26.66;65.72;100473.97;8354015;28;20037;-48
2022/08/19 09:42:57;;;;;;;27.42;18.42;;;;;;;26.88;66.45;100472.19;8354453;28;20497;-48
2022/08/19 09:46:57;;;;;;;28.27;19.10;;;;;;;27.57;64.30;100476.56;8315891;28;20033;-49
2022/08/19 09:51:16;;;;;;;31.23;21.50;;;;;;;28.26;61.80;100479.63;8322101;28;20037;-48
2022/08/19 09:55:17;;;;;;;32.45;22.20;;;;;;;29.33;58.69;100482.66;8344838;28;20775;-49
2022/08/19 09:59:18;;;;;;;36.38;24.90;;;;;;;29.28;58.30;100474.25;8340526;28;20037;-50
2022/08/19 10:03:18;;;;;;;28.75;20.30;;;;;;;29.84;57.94;100468.91;8345887;28;20037;-48
2022/08/19 10:07:18;;;;;;;30.03;19.67;;;;;;;30.07;56.66;100473.25;8353950;28;20112;-51
2022/08/19 10:11:20;;;;;;;27.23;18.87;;;;;;;29.28;57.87;100474.25;8323192;28;20280;-48
2022/08/19 10:15:20;;;;;;;21.88;14.68;;;;;;;30.10;55.71;100467.97;8334800;28;20290;-48
2022/08/19 10:19:21;;;;;;;25.88;18.67;;;;;;;31.04;52.94;100459.53;8320709;28;20041;-50
2022/08/19 10:23:21;;;;;;;24.85;17.88;;;;;;;31.96;52.98;100465.78;8321645;28;20033;-48
2022/08/19 10:27:22;;;;;;;23.55;15.75;;;;;;;31.70;52.59;100455.69;8352222;28;20041;-51
2022/08/19 10:31:29;;;;;;;21.75;15.55;;;;;;;31.03;53.01;100460.63;8341258;28;20371;-48
2022/08/19 10:35:30;;;;;;;21.55;12.43;;;;;;;30.59;53.54;100459.31;8318934;28;20044;-48
2022/08/19 10:39:32;;;;;;;18.95;12.70;;;;;;;31.03;53.40;100455.88;8319697;28;20487;-48
2022/08/19 10:43:34;;;;;;;20.10;15.93;;;;;;;31.78;52.19;100463.53;8318548;28;20033;-49
2022/08/19 10:47:35;;;;;;;23.08;15.50;;;;;;;31.80;52.31;100461.25;8320096;28;20112;-49
2022/08/19 10:52:37;;;;;;;23.17;17.85;;;;;;;32.07;51.47;100453.44;8320094;28;20506;-49
2022/08/19 10:56:57;;;;;;;21.80;17.05;;;;;;;31.96;51.53;100460.19;8325434;28;20034;-48
2022/08/19 11:00:17;;;;;;;27.67;19.00;;;;;;;32.08;51.85;100469.13;8325252;28;20363;-49
2022/08/19 11:04:19;;;;;;;28.52;21.80;;;;;;;30.66;54.28;100460.75;8320130;28;20431;-51
2022/08/19 11:08:19;;;;;;;27.85;19.08;;;;;;;31.24;53.84;100453.94;8320119;28;20702;-49
2022/08/19 11:12:20;;;;;;;27.00;18.48;;;;;;;31.66;52.68;100455.44;8331364;28;20482;-49
2022/08/19 11:16:25;;;;;;;29.13;20.43;;;;;;;31.53;53.15;100449.56;8351048;28;20029;-49
2022/08/19 11:20:25;;;;;;;26.33;20.52;;;;;;;31.77;52.43;100450.63;8324704;28;20342;-49
2022/08/19 11:24:27;;;;;;;24.05;17.33;;;;;;;32.54;51.15;100451.09;8323452;28;20161;-49
2022/08/19 11:28:28;;;;;;;28.65;21.67;;;;;;;32.63;50.35;100438.19;8342538;28;20514;-52
2022/08/19 11:32:28;;;;;;;31.45;22.05;;;;;;;31.84;51.38;100440.06;8324478;28;20045;-49
2022/08/19 11:36:31;;;;;;;34.22;24.67;;;;;;;31.51;52.40;100435.00;8323777;28;20041;-48
2022/08/19 11:40:33;;;;;;;29.10;21.40;;;;;;;32.88;50.59;100426.88;8324575;28;20040;-50
2022/08/19 11:44:33;;;;;;;25.35;20.15;;;;;;;33.26;48.98;100430.78;8305874;28;20400;-52
2022/08/19 11:48:52;;;;;;;28.42;19.42;;;;;;;33.28;49.45;100417.34;8303670;28;20986;-50
2022/08/19 11:52:55;;;;;;;24.67;18.05;;;;;;;33.84;47.39;100416.56;8278039;28;20419;-50
2022/08/19 11:56:55;;;;;;;20.70;16.33;;;;;;;34.15;46.59;100413.47;8294954;28;20372;-49
2022/08/19 12:00:56;;;;;;;19.47;13.77;;;;;;;32.96;48.15;100417.00;8305169;28;20037;-51
2022/08/19 12:04:57;;;;;;;22.98;17.13;;;;;;;30.51;51.07;100418.81;8342426;28;20808;-49
2022/08/19 12:09:00;;;;;;;17.55;11.40;;;;;;;30.43;52.63;100410.97;8314594;28;20033;-49
2022/08/19 12:13:01;;;;;;;22.40;15.60;;;;;;;29.42;53.75;100415.03;8303229;28;20120;-50
2022/08/19 12:17:04;;;;;;;22.42;14.68;;;;;;;28.61;55.46;100401.38;8303765;28;20050;-51
2022/08/19 12:21:04;;;;;;;19.85;13.15;;;;;;;29.41;54.74;100413.34;8311713;28;20046;-49
2022/08/19 12:25:05;;;;;;;12.10;9.70;;;;;;;29.31;51.98;100402.13;8333499;28;20143;-49
2022/08/19 12:29:08;;;;;;;17.75;11.07;;;;;;;30.03;52.11;100406.00;8307338;28;20041;-52
2022/08/19 12:33:08;;;;;;;21.63;14.30;;;;;;;29.40;52.35;100389.34;8317728;28;20103;-50
2022/08/19 12:37:09;;;;;;;18.80;12.83;;;;;;;29.46;53.05;100393.03;8302037;28;20137;-51
2022/08/19 12:41:12;;;;;;;17.73;11.20;;;;;;;29.22;51.80;100378.66;8323686;28;20334;-51
2022/08/19 12:45:13;;;;;;;17.98;12.68;;;;;;;29.53;52.10;100394.50;8316072;28;20117;-50
2022/08/19 12:49:13;;;;;;;15.85;11.60;;;;;;;29.55;51.18;100389.47;8280583;28;20046;-51
2022/08/19 12:53:15;;;;;;;20.53;13.93;;;;;;;28.29;53.18;100394.81;8318303;28;20523;-49
2022/08/19 12:57:15;;;;;;;24.42;16.58;;;;;;;27.65;55.47;100387.22;8315126;28;20318;-49
2022/08/19 13:01:17;;;;;;;20.88;16.17;;;;;;;27.23;56.25;100386.78;8313538;28;20580;-48
2022/08/19 13:05:22;;;;;;;17.52;11.85;;;;;;;28.60;53.97;100382.97;8331341;28;20056;-50
2022/08/19 13:09:22;;;;;;;14.25;9.95;;;;;;;28.85;52.45;100369.38;8327629;28;20038;-49
2022/08/19 13:13:25;;;;;;;15.63;11.87;;;;;;;28.98;53.69;100379.22;8306709;28;20034;-50
2022/08/19 13:17:26;;;;;;;17.52;13.38;;;;;;;28.04;57.11;100383.38;8312924;28;20299;-49
2022/08/19 13:21:28;;;;;;;17.30;11.65;;;;;;;28.29;55.46;100369.78;8303622;28;20055;-48
2022/08/19 13:25:29;;;;;;;17.95;12.25;;;;;;;28.43;56.26;100373.88;8308281;28;20473;-48
2022/08/19 13:33:49;;;;;;;22.25;13.88;;;;;;;27.89;56.46;100366.47;8346922;28;20037;-53
2022/08/19 13:37:50;;;;;;;16.30;12.43;;;;;;;28.49;55.87;100370.06;8347532;28;20044;-53
2022/08/19 13:41:50;;;;;;;17.40;11.55;;;;;;;28.25;55.68;100357.50;8345970;28;20052;-53
2022/08/19 13:45:55;;;;;;;20.73;11.57;;;;;;;28.44;56.11;100361.63;8339420;28;20036;-52
2022/08/19 13:49:55;;;;;;;14.20;8.93;;;;;;;28.54;54.62;100361.75;8337929;28;20048;-53
2022/08/19 13:53:56;;;;;;;16.43;11.03;;;;;;;28.15;55.41;100357.41;8321284;28;20074;-52
2022/08/19 13:57:59;;;;;;;12.77;8.50;;;;;;;27.64;56.90;100349.41;8340092;28;20287;-52
2022/08/19 14:02:00;;;;;;;10.38;6.05;;;;;;;28.45;54.69;100346.63;8334630;28;20041;-53
2022/08/19 14:06:01;;;;;;;6.75;5.82;;;;;;;27.94;54.88;100353.53;8336647;28;20065;-53
2022/08/19 14:10:05;;;;;;;5.85;5.07;;;;;;;27.56;57.00;100352.63;8320591;28;20561;-51
2022/08/19 14:14:06;;;;;;;5.85;5.20;;;;;;;28.23;54.62;100348.56;8314580;28;20314;-52
2022/08/19 14:18:06;;;;;;;9.18;4.72;;;;;;;28.49;54.17;100353.38;8314614;28;20041;-50
2022/08/19 14:22:07;;;;;;;7.60;3.28;;;;;;;28.44;52.55;100344.94;8336049;28;20041;-51
2022/08/19 14:26:12;;;;;;;5.38;3.33;;;;;;;28.45;52.47;100353.06;8324572;28;20564;-53
2022/08/19 14:30:17;;;;;;;6.32;3.35;;;;;;;28.36;53.08;100364.88;8318241;28;20042;-52
2022/08/19 14:34:17;;;;;;;4.72;3.40;;;;;;;28.23;53.39;100345.81;8303797;28;20038;-53
2022/08/19 14:38:19;;;;;;;3.90;2.73;;;;;;;28.61;53.58;100340.97;8257112;28;20056;-54
2022/08/19 14:42:19;;;;;;;6.70;2.78;;;;;;;28.55;52.63;100335.66;8291446;28;20284;-54
2022/08/19 14:46:23;;;;;;;5.47;2.97;;;;;;;28.38;53.41;100340.41;8271089;28;20042;-54
2022/08/19 14:50:23;;;;;;;4.60;3.20;;;;;;;28.05;54.37;100351.69;8277099;28;20108;-54
2022/08/19 14:54:23;;;;;;;10.25;3.50;;;;;;;27.79;56.37;100358.84;8300446;28;20036;-53
2022/08/19 14:58:24;;;;;;;12.23;3.70;;;;;;;27.85;55.71;100356.94;8296547;28;20092;-52
2022/08/19 15:02:24;;;;;;;4.00;3.00;;;;;;;27.81;56.03;100367.72;8320830;28;20442;-53
2022/08/19 15:06:26;;;;;;;5.77;2.97;;;;;;;27.78;56.39;100350.75;8316495;28;20696;-52
2022/08/19 15:10:26;;;;;;;8.77;3.35;;;;;;;27.86;56.69;100353.09;8316386;28;20314;-53
2022/08/19 15:14:32;;;;;;;4.72;2.92;;;;;;;27.73;57.48;100368.19;8338986;28;20490;-52
2022/08/19 15:18:32;;;;;;;4.43;2.97;;;;;;;27.64;57.57;100368.88;8342065;28;20059;-51
2022/08/19 15:22:35;;;;;;;3.03;2.53;;;;;;;27.78;57.43;100372.97;8311459;28;20034;-53
2022/08/19 15:26:35;;;;;;;6.00;2.70;;;;;;;27.99;57.16;100369.44;8325185;28;20057;-53
2022/08/19 15:30:35;;;;;;;4.90;2.23;;;;;;;28.12;57.27;100374.59;8324326;28;20351;-50
2022/08/19 15:34:36;;;;;;;4.22;2.03;;;;;;;27.78;57.99;100382.13;8308954;28;21092;-51
2022/08/19 15:38:36;;;;;;;3.83;2.13;;;;;;;27.72;58.93;100379.56;8321541;28;20058;-54
2022/08/19 15:42:37;;;;;;;3.70;1.92;;;;;;;27.69;59.07;100385.63;8313690;28;20850;-50
2022/08/19 15:46:40;;;;;;;2.28;1.70;;;;;;;27.72;58.83;100374.81;8322466;28;20113;-53
2022/08/19 15:50:41;;;;;;;2.65;1.50;;;;;;;27.54;59.31;100380.66;8320234;28;20407;-51
2022/08/19 15:54:41;;;;;;;6.60;2.13;;;;;;;27.54;59.70;100388.16;8323158;28;20029;-53
2022/08/19 16:07:22;;;;;;;3.92;1.60;;;;;;;27.31;60.56;100385.56;8323687;28;20025;-52
2022/08/19 16:11:28;;;;;;;2.50;1.70;;;;;;;27.30;61.62;100387.50;8310060;28;20041;-53
2022/08/19 16:15:29;;;;;;;3.95;1.52;;;;;;;27.22;61.68;100389.81;8294621;28;20061;-53
2022/08/19 16:19:30;;;;;;;5.05;1.88;;;;;;;27.18;62.21;100397.81;8307297;28;20041;-50
2022/08/19 16:23:31;;;;;;;4.22;1.75;;;;;;;27.08;62.91;100405.13;8308237;28;20518;-51
2022/08/19 16:27:32;;;;;;;3.38;2.22;;;;;;;26.93;63.21;100390.97;8317103;28;20450;-50
2022/08/19 16:31:33;;;;;;;2.08;1.83;;;;;;;26.80;63.87;100409.63;8352964;28;20029;-51
2022/08/19 16:35:35;;;;;;;3.08;1.90;;;;;;;26.64;65.15;100404.88;8355578;28;20032;-53
2022/08/19 16:39:36;;;;;;;4.13;1.90;;;;;;;26.62;65.82;100404.28;8327701;28;20041;-53
2022/08/19 16:43:37;;;;;;;5.78;2.00;;;;;;;26.49;66.38;100412.84;8316737;28;20042;-52
2022/08/19 16:47:38;;;;;;;8.02;2.65;;;;;;;26.35;66.66;100417.00;8336915;28;20029;-53
2022/08/19 16:51:38;;;;;;;5.13;2.53;;;;;;;26.26;67.40;100418.47;8323483;28;20560;-50
2022/08/19 16:55:40;;;;;;;3.13;2.03;;;;;;;26.16;67.43;100417.41;8317720;28;20485;-49
2022/08/19 16:59:40;;;;;;;5.15;2.00;;;;;;;26.04;68.10;100414.66;8302701;28;20479;-51
2022/08/19 17:03:41;;;;;;;3.03;2.30;;;;;;;26.05;68.19;100410.81;8305878;28;20095;-53
2022/08/19 17:07:41;;;;;;;7.13;2.75;;;;;;;26.05;68.74;100410.81;8312138;28;20041;-52
2022/08/19 17:11:41;;;;;;;4.78;2.45;;;;;;;26.07;69.33;100408.63;8319636;28;20406;-49
2022/08/19 17:15:42;;;;;;;6.80;2.40;;;;;;;26.14;69.71;100398.22;8333891;28;20053;-49
2022/08/19 17:19:43;;;;;;;3.55;2.20;;;;;;;26.23;69.31;100396.78;8323116;28;20284;-51
2022/08/19 17:23:43;;;;;;;4.75;2.08;;;;;;;26.22;69.45;100395.09;8318266;28;20124;-53
2022/08/19 17:27:44;;;;;;;4.75;2.95;;;;;;;26.21;69.42;100393.41;8310437;28;20041;-52
2022/08/19 17:31:44;;;;;;;7.57;2.40;;;;;;;26.26;69.20;100379.66;8318198;28;20029;-52
2022/08/19 17:35:45;;;;;;;2.55;2.28;;;;;;;26.21;69.31;100387.88;8308430;28;20052;-53
2022/08/19 17:39:46;;;;;;;4.38;2.22;;;;;;;26.09;69.80;100384.28;8314809;28;20206;-53
2022/08/19 17:43:46;;;;;;;5.35;2.47;;;;;;;26.05;69.95;100383.09;8310201;28;20041;-52
2022/08/19 17:47:47;;;;;;;3.17;2.13;;;;;;;25.91;70.27;100378.88;8311802;28;20095;-50
2022/08/19 17:51:48;;;;;;;3.33;1.83;;;;;;;25.78;69.99;100384.69;8285750;28;20038;-51
2022/08/19 17:55:48;;;;;;;2.65;1.80;;;;;;;25.61;70.43;100386.47;8312262;28;20064;-50
2022/08/19 17:59:49;;;;;;;3.15;1.50;;;;;;;25.46;70.97;100386.13;8312030;28;20045;-52
2022/08/19 18:03:50;;;;;;;3.63;1.88;;;;;;;25.48;70.76;100397.81;8318272;28;20079;-52
2022/08/19 18:07:51;;;;;;;10.98;1.92;;;;;;;25.40;71.05;100400.91;8335512;28;20044;-53
2022/08/19 18:11:53;;;;;;;4.45;1.67;;;;;;;25.45;70.98;100403.81;8321084;28;20033;-51
2022/08/19 18:15:55;;;;;;;3.15;1.80;;;;;;;25.37;71.49;100408.88;8318852;28;20050;-53
2022/08/19 18:19:56;;;;;;;2.13;1.60;;;;;;;25.30;71.79;100414.47;8313714;28;20041;-53
2022/08/19 18:23:57;;;;;;;4.18;2.80;;;;;;;25.19;72.46;100415.31;8340895;28;20123;-53
2022/08/19 18:27:59;;;;;;;4.05;2.03;;;;;;;25.17;72.64;100414.72;8326397;28;20030;-49
2022/08/19 18:32:00;;;;;;;7.28;3.53;;;;;;;25.20;72.64;100417.00;8344888;28;20049;-50
2022/08/19 18:36:01;;;;;;;6.13;2.58;;;;;;;25.25;72.53;100425.41;8321383;28;20037;-53
2022/08/19 18:49:14;;;;;;;5.38;2.50;;;;;;;25.17;74.20;100433.22;8354188;28;20405;-51
2022/08/19 18:53:04;;;;;;;10.75;3.95;;;;;;;25.18;73.26;100430.22;8359253;28;20033;-49